sensor_id;sensor_type;location;lat;lon;timestamp;P1;durP1;ratioP1;P2;durP2;ratioP2
12760;SDS011;6444;49.742;6.114;2022-09-02T00:01:39;15.82;;;12.65;;
12760;SDS011;6444;49.742;6.114;2022-09-02T00:04:05;12.68;;;11.57;;
12760;SDS011;6444;49.742;6.114;2022-09-02T00:06:31;13.70;;;12.32;;
12760;SDS011;6444;49.742;6.114;2022-09-02T00:08:57;13.30;;;12.00;;
12760;SDS011;6444;49.742;6.114;2022-09-02T00:11:25;13.05;;;11.90;;
12760;SDS011;6444;49.742;6.114;2022-09-02T00:13:51;13.25;;;11.85;;
12760;SDS011;6444;49.742;6.114;2022-09-02T00:16:17;14.30;;;12.18;;
12760;SDS011;6444;49.742;6.114;2022-09-02T00:18:44;13.10;;;11.73;;
12760;SDS011;6444;49.742;6.114;2022-09-02T00:21:11;13.40;;;11.88;;
12760;SDS011;6444;49.742;6.114;2022-09-02T00:23:37;12.95;;;11.80;;
12760;SDS011;6444;49.742;6.114;2022-09-02T00:26:04;17.17;;;12.27;;
12760;SDS011;6444;49.742;6.114;2022-09-02T00:28:30;13.45;;;12.05;;
12760;SDS011;6444;49.742;6.114;2022-09-02T00:30:57;13.50;;;12.18;;
12760;SDS011;6444;49.742;6.114;2022-09-02T00:33:24;16.55;;;14.85;;
12760;SDS011;6444;49.742;6.114;2022-09-02T00:35:50;14.77;;;13.27;;
12760;SDS011;6444;49.742;6.114;2022-09-02T00:38:17;13.23;;;12.00;;
12760;SDS011;6444;49.742;6.114;2022-09-02T00:40:45;13.57;;;12.27;;
12760;SDS011;6444;49.742;6.114;2022-09-02T00:43:24;15.15;;;12.95;;
12760;SDS011;6444;49.742;6.114;2022-09-02T00:45:48;14.57;;;13.27;;
12760;SDS011;6444;49.742;6.114;2022-09-02T00:48:15;14.13;;;12.82;;
12760;SDS011;6444;49.742;6.114;2022-09-02T00:50:42;14.80;;;13.30;;
12760;SDS011;6444;49.742;6.114;2022-09-02T00:53:09;16.08;;;14.57;;
12760;SDS011;6444;49.742;6.114;2022-09-02T00:55:37;13.60;;;12.30;;
12760;SDS011;6444;49.742;6.114;2022-09-02T00:58:04;13.30;;;11.15;;
12760;SDS011;6444;49.742;6.114;2022-09-02T01:00:29;12.60;;;11.30;;
12760;SDS011;6444;49.742;6.114;2022-09-02T01:02:56;12.55;;;11.45;;
12760;SDS011;6444;49.742;6.114;2022-09-02T01:05:23;11.77;;;10.70;;
12760;SDS011;6444;49.742;6.114;2022-09-02T01:07:48;11.82;;;10.73;;
12760;SDS011;6444;49.742;6.114;2022-09-02T01:10:16;12.52;;;10.73;;
12760;SDS011;6444;49.742;6.114;2022-09-02T01:12:44;14.02;;;12.70;;
12760;SDS011;6444;49.742;6.114;2022-09-02T01:15:11;14.33;;;13.03;;
12760;SDS011;6444;49.742;6.114;2022-09-02T01:17:46;13.32;;;12.13;;
12760;SDS011;6444;49.742;6.114;2022-09-02T01:20:13;12.70;;;11.60;;
12760;SDS011;6444;49.742;6.114;2022-09-02T01:22:37;10.25;;;9.32;;
12760;SDS011;6444;49.742;6.114;2022-09-02T01:25:06;10.32;;;9.32;;
12760;SDS011;6444;49.742;6.114;2022-09-02T01:27:29;10.93;;;9.82;;
12760;SDS011;6444;49.742;6.114;2022-09-02T01:29:57;10.68;;;9.75;;
12760;SDS011;6444;49.742;6.114;2022-09-02T01:32:23;10.82;;;9.65;;
12760;SDS011;6444;49.742;6.114;2022-09-02T01:34:49;10.55;;;9.65;;
12760;SDS011;6444;49.742;6.114;2022-09-02T01:37:16;11.50;;;10.02;;
12760;SDS011;6444;49.742;6.114;2022-09-02T01:39:42;11.85;;;10.60;;
12760;SDS011;6444;49.742;6.114;2022-09-02T01:42:09;11.68;;;10.30;;
12760;SDS011;6444;49.742;6.114;2022-09-02T01:44:36;11.48;;;10.48;;
12760;SDS011;6444;49.742;6.114;2022-09-02T01:47:02;11.98;;;10.88;;
12760;SDS011;6444;49.742;6.114;2022-09-02T01:49:29;11.07;;;9.98;;
12760;SDS011;6444;49.742;6.114;2022-09-02T01:51:55;11.55;;;10.45;;
12760;SDS011;6444;49.742;6.114;2022-09-02T01:54:22;11.57;;;10.48;;
12760;SDS011;6444;49.742;6.114;2022-09-02T01:56:49;11.60;;;10.40;;
12760;SDS011;6444;49.742;6.114;2022-09-02T01:59:15;12.45;;;11.35;;
12760;SDS011;6444;49.742;6.114;2022-09-02T02:01:43;11.93;;;10.77;;
12760;SDS011;6444;49.742;6.114;2022-09-02T02:04:11;11.95;;;10.85;;
12760;SDS011;6444;49.742;6.114;2022-09-02T02:06:42;12.93;;;11.63;;
12760;SDS011;6444;49.742;6.114;2022-09-02T02:09:07;12.45;;;11.25;;
12760;SDS011;6444;49.742;6.114;2022-09-02T02:11:34;12.73;;;11.52;;
12760;SDS011;6444;49.742;6.114;2022-09-02T02:14:01;13.07;;;11.77;;
12760;SDS011;6444;49.742;6.114;2022-09-02T02:16:27;13.40;;;12.00;;
12760;SDS011;6444;49.742;6.114;2022-09-02T02:18:54;13.05;;;11.80;;
12760;SDS011;6444;49.742;6.114;2022-09-02T02:21:20;13.43;;;12.07;;
12760;SDS011;6444;49.742;6.114;2022-09-02T02:23:47;13.23;;;12.02;;
12760;SDS011;6444;49.742;6.114;2022-09-02T02:26:14;15.00;;;12.70;;
12760;SDS011;6444;49.742;6.114;2022-09-02T02:28:40;13.35;;;12.15;;
12760;SDS011;6444;49.742;6.114;2022-09-02T02:31:07;13.45;;;12.15;;
12760;SDS011;6444;49.742;6.114;2022-09-02T02:33:34;15.00;;;13.23;;
12760;SDS011;6444;49.742;6.114;2022-09-02T02:36:01;15.10;;;13.07;;
12760;SDS011;6444;49.742;6.114;2022-09-02T02:38:27;18.15;;;16.40;;
12760;SDS011;6444;49.742;6.114;2022-09-02T02:40:54;15.23;;;13.75;;
12760;SDS011;6444;49.742;6.114;2022-09-02T02:43:20;14.50;;;13.00;;
12760;SDS011;6444;49.742;6.114;2022-09-02T02:45:47;15.02;;;13.45;;
12760;SDS011;6444;49.742;6.114;2022-09-02T02:48:13;13.88;;;12.48;;
12760;SDS011;6444;49.742;6.114;2022-09-02T02:50:40;14.10;;;12.75;;
12760;SDS011;6444;49.742;6.114;2022-09-02T02:53:07;13.98;;;12.52;;
12760;SDS011;6444;49.742;6.114;2022-09-02T02:55:33;15.57;;;12.95;;
12760;SDS011;6444;49.742;6.114;2022-09-02T02:58:00;13.57;;;12.25;;
12760;SDS011;6444;49.742;6.114;2022-09-02T03:00:28;15.20;;;13.15;;
12760;SDS011;6444;49.742;6.114;2022-09-02T03:02:54;13.95;;;12.55;;
12760;SDS011;6444;49.742;6.114;2022-09-02T03:05:22;13.62;;;12.13;;
12760;SDS011;6444;49.742;6.114;2022-09-02T03:07:49;15.07;;;13.30;;
12760;SDS011;6444;49.742;6.114;2022-09-02T03:10:16;14.18;;;12.82;;
12760;SDS011;6444;49.742;6.114;2022-09-02T03:12:42;18.52;;;16.83;;
12760;SDS011;6444;49.742;6.114;2022-09-02T03:15:09;15.32;;;13.70;;
12760;SDS011;6444;49.742;6.114;2022-09-02T03:17:35;16.95;;;13.77;;
12760;SDS011;6444;49.742;6.114;2022-09-02T03:20:02;14.38;;;12.85;;
12760;SDS011;6444;49.742;6.114;2022-09-02T03:22:29;13.80;;;12.50;;
12760;SDS011;6444;49.742;6.114;2022-09-02T03:24:55;15.20;;;13.18;;
12760;SDS011;6444;49.742;6.114;2022-09-02T03:27:22;14.15;;;12.75;;
12760;SDS011;6444;49.742;6.114;2022-09-02T03:29:49;14.82;;;12.52;;
12760;SDS011;6444;49.742;6.114;2022-09-02T03:32:15;14.23;;;12.75;;
12760;SDS011;6444;49.742;6.114;2022-09-02T03:34:42;15.65;;;13.20;;
12760;SDS011;6444;49.742;6.114;2022-09-02T03:37:09;14.77;;;13.27;;
12760;SDS011;6444;49.742;6.114;2022-09-02T03:39:36;14.60;;;12.98;;
12760;SDS011;6444;49.742;6.114;2022-09-02T03:42:02;16.58;;;14.40;;
12760;SDS011;6444;49.742;6.114;2022-09-02T03:44:28;15.18;;;13.65;;
12760;SDS011;6444;49.742;6.114;2022-09-02T03:46:55;14.77;;;13.38;;
12760;SDS011;6444;49.742;6.114;2022-09-02T03:49:22;15.07;;;12.50;;
12760;SDS011;6444;49.742;6.114;2022-09-02T03:51:48;14.70;;;13.15;;
12760;SDS011;6444;49.742;6.114;2022-09-02T03:54:15;16.20;;;14.40;;
12760;SDS011;6444;49.742;6.114;2022-09-02T03:56:41;15.32;;;13.73;;
12760;SDS011;6444;49.742;6.114;2022-09-02T03:59:08;16.37;;;13.70;;
12760;SDS011;6444;49.742;6.114;2022-09-02T04:01:35;17.73;;;14.37;;
12760;SDS011;6444;49.742;6.114;2022-09-02T04:04:02;14.50;;;13.03;;
12760;SDS011;6444;49.742;6.114;2022-09-02T04:06:28;16.90;;;13.30;;
12760;SDS011;6444;49.742;6.114;2022-09-02T04:08:55;14.60;;;13.10;;
12760;SDS011;6444;49.742;6.114;2022-09-02T04:11:22;15.23;;;13.73;;
12760;SDS011;6444;49.742;6.114;2022-09-02T04:13:49;14.73;;;12.87;;
12760;SDS011;6444;49.742;6.114;2022-09-02T04:16:16;14.95;;;13.43;;
12760;SDS011;6444;49.742;6.114;2022-09-02T04:18:41;16.03;;;13.70;;
12760;SDS011;6444;49.742;6.114;2022-09-02T04:21:08;15.85;;;13.77;;
12760;SDS011;6444;49.742;6.114;2022-09-02T04:26:07;15.47;;;13.93;;
12760;SDS011;6444;49.742;6.114;2022-09-02T04:28:30;14.23;;;12.73;;
12760;SDS011;6444;49.742;6.114;2022-09-02T04:30:57;15.37;;;13.77;;
12760;SDS011;6444;49.742;6.114;2022-09-02T04:33:23;14.87;;;13.27;;
12760;SDS011;6444;49.742;6.114;2022-09-02T04:35:50;20.55;;;18.45;;
12760;SDS011;6444;49.742;6.114;2022-09-02T04:38:17;16.63;;;14.93;;
12760;SDS011;6444;49.742;6.114;2022-09-02T04:40:44;20.20;;;18.30;;
12760;SDS011;6444;49.742;6.114;2022-09-02T04:43:10;15.65;;;14.05;;
12760;SDS011;6444;49.742;6.114;2022-09-02T04:45:41;15.35;;;13.60;;
12760;SDS011;6444;49.742;6.114;2022-09-02T04:48:09;13.77;;;11.93;;
12760;SDS011;6444;49.742;6.114;2022-09-02T04:50:36;14.77;;;13.17;;
12760;SDS011;6444;49.742;6.114;2022-09-02T04:53:02;14.63;;;13.07;;
12760;SDS011;6444;49.742;6.114;2022-09-02T04:55:29;14.70;;;13.20;;
12760;SDS011;6444;49.742;6.114;2022-09-02T04:57:55;15.75;;;14.15;;
12760;SDS011;6444;49.742;6.114;2022-09-02T05:00:22;16.47;;;13.27;;
12760;SDS011;6444;49.742;6.114;2022-09-02T05:02:49;15.67;;;13.80;;
12760;SDS011;6444;49.742;6.114;2022-09-02T05:05:15;15.30;;;13.80;;
12760;SDS011;6444;49.742;6.114;2022-09-02T05:07:42;15.73;;;13.70;;
12760;SDS011;6444;49.742;6.114;2022-09-02T05:10:09;21.58;;;19.48;;
12760;SDS011;6444;49.742;6.114;2022-09-02T05:12:35;19.20;;;17.30;;
12760;SDS011;6444;49.742;6.114;2022-09-02T05:15:02;17.40;;;15.73;;
12760;SDS011;6444;49.742;6.114;2022-09-02T05:17:28;14.25;;;12.75;;
12760;SDS011;6444;49.742;6.114;2022-09-02T05:19:58;12.98;;;11.68;;
12760;SDS011;6444;49.742;6.114;2022-09-02T05:22:25;13.43;;;12.02;;
12760;SDS011;6444;49.742;6.114;2022-09-02T05:24:51;13.73;;;12.20;;
12760;SDS011;6444;49.742;6.114;2022-09-02T05:27:18;13.30;;;11.97;;
12760;SDS011;6444;49.742;6.114;2022-09-02T05:29:44;12.63;;;11.43;;
12760;SDS011;6444;49.742;6.114;2022-09-02T05:32:11;12.50;;;11.20;;
12760;SDS011;6444;49.742;6.114;2022-09-02T05:34:38;13.02;;;11.52;;
12760;SDS011;6444;49.742;6.114;2022-09-02T05:37:04;12.30;;;11.12;;
12760;SDS011;6444;49.742;6.114;2022-09-02T05:39:31;13.10;;;11.90;;
12760;SDS011;6444;49.742;6.114;2022-09-02T05:41:58;10.88;;;9.82;;
12760;SDS011;6444;49.742;6.114;2022-09-02T05:44:24;8.95;;;8.07;;
12760;SDS011;6444;49.742;6.114;2022-09-02T05:46:51;6.75;;;6.15;;
12760;SDS011;6444;49.742;6.114;2022-09-02T05:49:17;5.20;;;4.80;;
12760;SDS011;6444;49.742;6.114;2022-09-02T05:51:46;4.87;;;4.47;;
12760;SDS011;6444;49.742;6.114;2022-09-02T05:54:12;4.45;;;4.05;;
12760;SDS011;6444;49.742;6.114;2022-09-02T05:56:41;4.00;;;3.70;;
12760;SDS011;6444;49.742;6.114;2022-09-02T05:59:07;3.92;;;3.20;;
12760;SDS011;6444;49.742;6.114;2022-09-02T06:01:34;3.37;;;3.08;;
12760;SDS011;6444;49.742;6.114;2022-09-02T06:04:00;3.17;;;2.90;;
12760;SDS011;6444;49.742;6.114;2022-09-02T06:06:29;3.45;;;3.15;;
12760;SDS011;6444;49.742;6.114;2022-09-02T06:08:56;2.95;;;2.72;;
12760;SDS011;6444;49.742;6.114;2022-09-02T06:11:22;3.00;;;2.70;;
12760;SDS011;6444;49.742;6.114;2022-09-02T06:13:49;4.55;;;2.67;;
12760;SDS011;6444;49.742;6.114;2022-09-02T06:16:17;2.80;;;2.60;;
12760;SDS011;6444;49.742;6.114;2022-09-02T06:18:42;2.85;;;2.65;;
12760;SDS011;6444;49.742;6.114;2022-09-02T06:21:09;2.95;;;2.65;;
12760;SDS011;6444;49.742;6.114;2022-09-02T06:23:36;3.97;;;2.97;;
12760;SDS011;6444;49.742;6.114;2022-09-02T06:26:02;4.80;;;3.08;;
12760;SDS011;6444;49.742;6.114;2022-09-02T06:28:29;4.72;;;3.17;;
12760;SDS011;6444;49.742;6.114;2022-09-02T06:30:55;5.20;;;3.20;;
12760;SDS011;6444;49.742;6.114;2022-09-02T06:33:22;4.93;;;3.30;;
12760;SDS011;6444;49.742;6.114;2022-09-02T06:35:49;3.42;;;3.00;;
12760;SDS011;6444;49.742;6.114;2022-09-02T06:38:15;3.15;;;2.90;;
12760;SDS011;6444;49.742;6.114;2022-09-02T06:40:46;3.70;;;3.17;;
12760;SDS011;6444;49.742;6.114;2022-09-02T06:43:11;3.22;;;2.80;;
12760;SDS011;6444;49.742;6.114;2022-09-02T06:45:38;5.43;;;3.42;;
12760;SDS011;6444;49.742;6.114;2022-09-02T06:48:05;3.97;;;3.60;;
12760;SDS011;6444;49.742;6.114;2022-09-02T06:50:31;4.87;;;3.10;;
12760;SDS011;6444;49.742;6.114;2022-09-02T06:52:58;3.45;;;3.10;;
12760;SDS011;6444;49.742;6.114;2022-09-02T06:55:27;3.47;;;3.17;;
12760;SDS011;6444;49.742;6.114;2022-09-02T06:57:54;4.82;;;3.00;;
12760;SDS011;6444;49.742;6.114;2022-09-02T07:00:21;3.55;;;3.25;;
12760;SDS011;6444;49.742;6.114;2022-09-02T07:02:47;5.50;;;2.97;;
12760;SDS011;6444;49.742;6.114;2022-09-02T07:05:14;3.08;;;2.80;;
12760;SDS011;6444;49.742;6.114;2022-09-02T07:07:41;3.30;;;3.00;;
12760;SDS011;6444;49.742;6.114;2022-09-02T07:10:09;5.60;;;3.17;;
12760;SDS011;6444;49.742;6.114;2022-09-02T07:12:34;3.53;;;2.90;;
12760;SDS011;6444;49.742;6.114;2022-09-02T07:15:00;3.28;;;2.80;;
12760;SDS011;6444;49.742;6.114;2022-09-02T07:17:27;3.83;;;3.17;;
12760;SDS011;6444;49.742;6.114;2022-09-02T07:19:54;4.87;;;3.00;;
12760;SDS011;6444;49.742;6.114;2022-09-02T07:22:20;4.03;;;3.00;;
12760;SDS011;6444;49.742;6.114;2022-09-02T07:24:47;2.83;;;2.53;;
12760;SDS011;6444;49.742;6.114;2022-09-02T07:27:14;6.20;;;2.90;;
12760;SDS011;6444;49.742;6.114;2022-09-02T07:29:40;4.75;;;3.00;;
12760;SDS011;6444;49.742;6.114;2022-09-02T07:32:07;3.37;;;2.60;;
12760;SDS011;6444;49.742;6.114;2022-09-02T07:34:33;2.97;;;2.50;;
12760;SDS011;6444;49.742;6.114;2022-09-02T07:37:00;3.30;;;2.67;;
12760;SDS011;6444;49.742;6.114;2022-09-02T07:39:27;3.00;;;2.30;;
12760;SDS011;6444;49.742;6.114;2022-09-02T07:41:54;3.87;;;2.62;;
12760;SDS011;6444;49.742;6.114;2022-09-02T07:44:20;3.87;;;2.50;;
12760;SDS011;6444;49.742;6.114;2022-09-02T07:46:47;3.55;;;2.90;;
12760;SDS011;6444;49.742;6.114;2022-09-02T07:49:14;3.08;;;2.20;;
12760;SDS011;6444;49.742;6.114;2022-09-02T07:51:40;4.70;;;2.42;;
12760;SDS011;6444;49.742;6.114;2022-09-02T07:54:07;4.12;;;2.33;;
12760;SDS011;6444;49.742;6.114;2022-09-02T07:56:33;2.53;;;2.10;;
12760;SDS011;6444;49.742;6.114;2022-09-02T07:59:00;2.22;;;1.80;;
12760;SDS011;6444;49.742;6.114;2022-09-02T08:01:26;4.37;;;2.25;;
12760;SDS011;6444;49.742;6.114;2022-09-02T08:03:53;1.87;;;1.77;;
12760;SDS011;6444;49.742;6.114;2022-09-02T08:06:20;4.70;;;2.00;;
12760;SDS011;6444;49.742;6.114;2022-09-02T08:08:46;3.45;;;2.40;;
12760;SDS011;6444;49.742;6.114;2022-09-02T08:11:13;3.10;;;2.10;;
12760;SDS011;6444;49.742;6.114;2022-09-02T08:13:40;3.17;;;1.77;;
12760;SDS011;6444;49.742;6.114;2022-09-02T08:16:06;2.83;;;2.10;;
12760;SDS011;6444;49.742;6.114;2022-09-02T08:18:33;2.08;;;1.87;;
12760;SDS011;6444;49.742;6.114;2022-09-02T08:20:59;2.05;;;1.62;;
12760;SDS011;6444;49.742;6.114;2022-09-02T08:23:26;2.12;;;1.60;;
12760;SDS011;6444;49.742;6.114;2022-09-02T08:25:59;1.75;;;1.62;;
12760;SDS011;6444;49.742;6.114;2022-09-02T08:28:25;1.85;;;1.60;;
12760;SDS011;6444;49.742;6.114;2022-09-02T08:30:52;1.65;;;1.48;;
12760;SDS011;6444;49.742;6.114;2022-09-02T08:33:18;2.10;;;1.70;;
12760;SDS011;6444;49.742;6.114;2022-09-02T08:35:45;1.55;;;1.45;;
12760;SDS011;6444;49.742;6.114;2022-09-02T08:38:11;8.38;;;1.92;;
12760;SDS011;6444;49.742;6.114;2022-09-02T08:40:39;3.97;;;1.45;;
12760;SDS011;6444;49.742;6.114;2022-09-02T08:43:14;1.60;;;1.40;;
12760;SDS011;6444;49.742;6.114;2022-09-02T08:45:37;1.58;;;1.33;;
12760;SDS011;6444;49.742;6.114;2022-09-02T08:50:36;1.67;;;1.58;;
12760;SDS011;6444;49.742;6.114;2022-09-02T08:55:35;3.42;;;1.90;;
12760;SDS011;6444;49.742;6.114;2022-09-02T08:57:59;1.50;;;1.40;;
12760;SDS011;6444;49.742;6.114;2022-09-02T09:00:26;1.85;;;1.55;;
12760;SDS011;6444;49.742;6.114;2022-09-02T09:03:05;1.52;;;1.42;;
12760;SDS011;6444;49.742;6.114;2022-09-02T09:05:52;2.30;;;1.40;;
12760;SDS011;6444;49.742;6.114;2022-09-02T09:11:14;2.40;;;1.50;;
12760;SDS011;6444;49.742;6.114;2022-09-02T09:16:34;2.85;;;1.58;;
12760;SDS011;6444;49.742;6.114;2022-09-02T09:19:06;2.15;;;1.40;;
12760;SDS011;6444;49.742;6.114;2022-09-02T09:21:39;1.55;;;1.45;;
12760;SDS011;6444;49.742;6.114;2022-09-02T09:24:07;1.65;;;1.50;;
12760;SDS011;6444;49.742;6.114;2022-09-02T09:26:32;1.42;;;1.33;;
12760;SDS011;6444;49.742;6.114;2022-09-02T09:29:01;2.58;;;1.65;;
12760;SDS011;6444;49.742;6.114;2022-09-02T09:31:29;1.85;;;1.52;;
12760;SDS011;6444;49.742;6.114;2022-09-02T09:39:18;1.50;;;1.40;;
12760;SDS011;6444;49.742;6.114;2022-09-02T09:41:44;2.97;;;1.60;;
12760;SDS011;6444;49.742;6.114;2022-09-02T09:44:13;1.40;;;1.30;;
12760;SDS011;6444;49.742;6.114;2022-09-02T09:46:37;1.92;;;1.40;;
12760;SDS011;6444;49.742;6.114;2022-09-02T09:49:04;1.80;;;1.50;;
12760;SDS011;6444;49.742;6.114;2022-09-02T09:51:30;3.47;;;1.60;;
12760;SDS011;6444;49.742;6.114;2022-09-02T09:54:13;1.62;;;1.52;;
12760;SDS011;6444;49.742;6.114;2022-09-02T09:56:39;1.73;;;1.50;;
12760;SDS011;6444;49.742;6.114;2022-09-02T09:59:06;1.98;;;1.50;;
12760;SDS011;6444;49.742;6.114;2022-09-02T10:01:32;1.60;;;1.40;;
12760;SDS011;6444;49.742;6.114;2022-09-02T10:04:01;2.97;;;1.30;;
12760;SDS011;6444;49.742;6.114;2022-09-02T10:08:59;1.70;;;1.60;;
12760;SDS011;6444;49.742;6.114;2022-09-02T10:11:28;2.03;;;1.40;;
12760;SDS011;6444;49.742;6.114;2022-09-02T10:14:00;1.92;;;1.30;;
12760;SDS011;6444;49.742;6.114;2022-09-02T10:19:22;1.62;;;1.52;;
12760;SDS011;6444;49.742;6.114;2022-09-02T10:27:23;1.73;;;1.30;;
12760;SDS011;6444;49.742;6.114;2022-09-02T10:29:51;1.48;;;1.12;;
12760;SDS011;6444;49.742;6.114;2022-09-02T10:37:47;1.30;;;1.20;;
12760;SDS011;6444;49.742;6.114;2022-09-02T10:40:11;1.23;;;1.12;;
12760;SDS011;6444;49.742;6.114;2022-09-02T10:45:35;1.98;;;1.15;;
12760;SDS011;6444;49.742;6.114;2022-09-02T10:48:23;1.40;;;1.10;;
12760;SDS011;6444;49.742;6.114;2022-09-02T10:54:09;1.10;;;1.00;;
12760;SDS011;6444;49.742;6.114;2022-09-02T10:56:33;1.80;;;1.40;;
12760;SDS011;6444;49.742;6.114;2022-09-02T10:59:05;2.00;;;1.20;;
12760;SDS011;6444;49.742;6.114;2022-09-02T11:01:29;1.60;;;1.42;;
12760;SDS011;6444;49.742;6.114;2022-09-02T11:04:06;1.58;;;1.33;;
12760;SDS011;6444;49.742;6.114;2022-09-02T11:06:40;2.20;;;1.15;;
12760;SDS011;6444;49.742;6.114;2022-09-02T11:09:53;2.05;;;1.10;;
12760;SDS011;6444;49.742;6.114;2022-09-02T11:11:43;1.48;;;1.20;;
12760;SDS011;6444;49.742;6.114;2022-09-02T11:14:26;1.30;;;0.90;;
12760;SDS011;6444;49.742;6.114;2022-09-02T11:16:58;1.60;;;1.50;;
12760;SDS011;6444;49.742;6.114;2022-09-02T11:19:48;3.37;;;1.25;;
12760;SDS011;6444;49.742;6.114;2022-09-02T11:21:56;1.83;;;1.12;;
12760;SDS011;6444;49.742;6.114;2022-09-02T11:24:33;2.47;;;1.27;;
12760;SDS011;6444;49.742;6.114;2022-09-02T11:27:22;2.47;;;1.30;;
12760;SDS011;6444;49.742;6.114;2022-09-02T11:32:35;2.47;;;1.10;;
12760;SDS011;6444;49.742;6.114;2022-09-02T11:34:57;1.15;;;1.05;;
12760;SDS011;6444;49.742;6.114;2022-09-02T11:37:26;1.30;;;1.12;;
12760;SDS011;6444;49.742;6.114;2022-09-02T11:40:06;3.65;;;1.10;;
12760;SDS011;6444;49.742;6.114;2022-09-02T11:42:54;1.20;;;1.10;;
12760;SDS011;6444;49.742;6.114;2022-09-02T11:45:25;3.47;;;1.00;;
12760;SDS011;6444;49.742;6.114;2022-09-02T11:53:18;1.95;;;1.02;;
12760;SDS011;6444;49.742;6.114;2022-09-02T11:55:54;2.53;;;1.50;;
12760;SDS011;6444;49.742;6.114;2022-09-02T11:58:35;1.30;;;1.12;;
12760;SDS011;6444;49.742;6.114;2022-09-02T12:03:45;1.20;;;1.10;;
12760;SDS011;6444;49.742;6.114;2022-09-02T12:06:12;1.52;;;1.15;;
12760;SDS011;6444;49.742;6.114;2022-09-02T12:11:08;2.00;;;1.10;;
12760;SDS011;6444;49.742;6.114;2022-09-02T12:13:40;1.30;;;1.20;;
12760;SDS011;6444;49.742;6.114;2022-09-02T12:18:42;1.23;;;1.10;;
12760;SDS011;6444;49.742;6.114;2022-09-02T12:21:09;2.00;;;1.37;;
12760;SDS011;6444;49.742;6.114;2022-09-02T12:26:19;1.20;;;1.10;;
12760;SDS011;6444;49.742;6.114;2022-09-02T12:28:43;1.40;;;1.27;;
12760;SDS011;6444;49.742;6.114;2022-09-02T12:31:11;1.30;;;1.20;;
12760;SDS011;6444;49.742;6.114;2022-09-02T12:33:37;1.37;;;1.27;;
12760;SDS011;6444;49.742;6.114;2022-09-02T12:36:04;2.62;;;1.50;;
12760;SDS011;6444;49.742;6.114;2022-09-02T12:38:36;1.92;;;1.50;;
12760;SDS011;6444;49.742;6.114;2022-09-02T12:43:36;4.43;;;1.37;;
12760;SDS011;6444;49.742;6.114;2022-09-02T12:46:06;2.45;;;1.50;;
12760;SDS011;6444;49.742;6.114;2022-09-02T12:48:50;1.50;;;1.40;;
12760;SDS011;6444;49.742;6.114;2022-09-02T12:54:20;2.55;;;1.20;;
12760;SDS011;6444;49.742;6.114;2022-09-02T12:56:47;2.03;;;1.15;;
12760;SDS011;6444;49.742;6.114;2022-09-02T12:59:23;1.20;;;1.10;;
12760;SDS011;6444;49.742;6.114;2022-09-02T13:07:54;1.40;;;1.30;;
12760;SDS011;6444;49.742;6.114;2022-09-02T13:19:27;2.35;;;1.40;;
12760;SDS011;6444;49.742;6.114;2022-09-02T13:22:17;2.55;;;1.35;;
12760;SDS011;6444;49.742;6.114;2022-09-02T13:25:07;2.17;;;1.40;;
12760;SDS011;6444;49.742;6.114;2022-09-02T13:27:41;1.50;;;1.40;;
12760;SDS011;6444;49.742;6.114;2022-09-02T13:33:05;4.40;;;1.40;;
12760;SDS011;6444;49.742;6.114;2022-09-02T13:35:36;1.92;;;1.40;;
12760;SDS011;6444;49.742;6.114;2022-09-02T13:37:58;1.48;;;1.30;;
12760;SDS011;6444;49.742;6.114;2022-09-02T13:40:26;1.45;;;1.20;;
12760;SDS011;6444;49.742;6.114;2022-09-02T13:42:52;3.15;;;1.20;;
12760;SDS011;6444;49.742;6.114;2022-09-02T13:45:23;2.37;;;1.30;;
12760;SDS011;6444;49.742;6.114;2022-09-02T13:47:48;1.30;;;1.20;;
12760;SDS011;6444;49.742;6.114;2022-09-02T13:50:15;1.65;;;1.30;;
12760;SDS011;6444;49.742;6.114;2022-09-02T13:52:41;2.35;;;1.50;;
12760;SDS011;6444;49.742;6.114;2022-09-02T13:55:09;1.25;;;1.05;;
12760;SDS011;6444;49.742;6.114;2022-09-02T13:57:35;2.62;;;1.10;;
12760;SDS011;6444;49.742;6.114;2022-09-02T14:00:02;1.33;;;1.23;;
12760;SDS011;6444;49.742;6.114;2022-09-02T14:02:34;1.65;;;1.30;;
12760;SDS011;6444;49.742;6.114;2022-09-02T14:05:05;1.48;;;1.27;;
12760;SDS011;6444;49.742;6.114;2022-09-02T14:07:36;2.62;;;1.30;;
12760;SDS011;6444;49.742;6.114;2022-09-02T14:10:04;2.00;;;1.25;;
12760;SDS011;6444;49.742;6.114;2022-09-02T14:12:30;2.25;;;1.27;;
12760;SDS011;6444;49.742;6.114;2022-09-02T14:14:55;2.05;;;1.40;;
12760;SDS011;6444;49.742;6.114;2022-09-02T14:17:23;2.28;;;1.20;;
12760;SDS011;6444;49.742;6.114;2022-09-02T14:19:49;2.55;;;1.42;;
12760;SDS011;6444;49.742;6.114;2022-09-02T14:22:20;2.75;;;1.30;;
12760;SDS011;6444;49.742;6.114;2022-09-02T14:24:45;1.25;;;1.15;;
12760;SDS011;6444;49.742;6.114;2022-09-02T14:27:15;1.00;;;0.90;;
12760;SDS011;6444;49.742;6.114;2022-09-02T14:29:44;1.70;;;1.08;;
12760;SDS011;6444;49.742;6.114;2022-09-02T14:32:11;1.20;;;1.08;;
12760;SDS011;6444;49.742;6.114;2022-09-02T14:34:38;1.25;;;1.15;;
12760;SDS011;6444;49.742;6.114;2022-09-02T14:37:21;1.15;;;1.08;;
12760;SDS011;6444;49.742;6.114;2022-09-02T14:39:53;1.95;;;1.50;;
12760;SDS011;6444;49.742;6.114;2022-09-02T14:42:32;2.25;;;1.35;;
12760;SDS011;6444;49.742;6.114;2022-09-02T14:44:59;1.42;;;1.30;;
12760;SDS011;6444;49.742;6.114;2022-09-02T14:47:25;2.78;;;1.40;;
12760;SDS011;6444;49.742;6.114;2022-09-02T14:49:52;1.45;;;1.35;;
12760;SDS011;6444;49.742;6.114;2022-09-02T14:52:19;2.95;;;1.60;;
12760;SDS011;6444;49.742;6.114;2022-09-02T14:54:46;2.35;;;1.10;;
12760;SDS011;6444;49.742;6.114;2022-09-02T14:57:27;2.72;;;1.40;;
12760;SDS011;6444;49.742;6.114;2022-09-02T15:00:00;1.45;;;1.23;;
12760;SDS011;6444;49.742;6.114;2022-09-02T15:04:56;1.37;;;1.27;;
12760;SDS011;6444;49.742;6.114;2022-09-02T15:07:22;3.58;;;1.27;;
12760;SDS011;6444;49.742;6.114;2022-09-02T15:09:48;2.17;;;1.70;;
12760;SDS011;6444;49.742;6.114;2022-09-02T15:12:21;2.80;;;1.35;;
12760;SDS011;6444;49.742;6.114;2022-09-02T15:14:44;1.58;;;1.25;;
12760;SDS011;6444;49.742;6.114;2022-09-02T15:17:12;1.40;;;1.30;;
12760;SDS011;6444;49.742;6.114;2022-09-02T15:19:37;1.30;;;1.20;;
12760;SDS011;6444;49.742;6.114;2022-09-02T15:22:04;2.17;;;1.30;;
12760;SDS011;6444;49.742;6.114;2022-09-02T15:24:30;1.90;;;1.40;;
12760;SDS011;6444;49.742;6.114;2022-09-02T15:26:57;1.12;;;1.02;;
12760;SDS011;6444;49.742;6.114;2022-09-02T15:29:23;1.55;;;1.10;;
12760;SDS011;6444;49.742;6.114;2022-09-02T15:31:50;2.55;;;1.25;;
12760;SDS011;6444;49.742;6.114;2022-09-02T15:34:17;1.48;;;1.35;;
12760;SDS011;6444;49.742;6.114;2022-09-02T15:36:43;1.83;;;1.33;;
12760;SDS011;6444;49.742;6.114;2022-09-02T15:39:10;2.17;;;1.30;;
12760;SDS011;6444;49.742;6.114;2022-09-02T15:41:37;2.62;;;1.30;;
12760;SDS011;6444;49.742;6.114;2022-09-02T15:44:06;2.65;;;1.20;;
12760;SDS011;6444;49.742;6.114;2022-09-02T15:46:33;1.42;;;1.33;;
12760;SDS011;6444;49.742;6.114;2022-09-02T15:49:00;2.17;;;1.40;;
12760;SDS011;6444;49.742;6.114;2022-09-02T15:51:26;1.80;;;1.23;;
12760;SDS011;6444;49.742;6.114;2022-09-02T15:53:55;1.40;;;1.25;;
12760;SDS011;6444;49.742;6.114;2022-09-02T15:56:23;2.08;;;1.30;;
12760;SDS011;6444;49.742;6.114;2022-09-02T15:59:00;3.45;;;1.87;;
12760;SDS011;6444;49.742;6.114;2022-09-02T16:01:20;3.65;;;1.85;;
12760;SDS011;6444;49.742;6.114;2022-09-02T16:03:47;2.33;;;1.40;;
12760;SDS011;6444;49.742;6.114;2022-09-02T16:06:14;2.87;;;1.37;;
12760;SDS011;6444;49.742;6.114;2022-09-02T16:08:40;1.37;;;1.27;;
12760;SDS011;6444;49.742;6.114;2022-09-02T16:11:07;2.87;;;1.40;;
12760;SDS011;6444;49.742;6.114;2022-09-02T16:13:34;1.60;;;1.40;;
12760;SDS011;6444;49.742;6.114;2022-09-02T16:16:04;1.95;;;1.30;;
12760;SDS011;6444;49.742;6.114;2022-09-02T16:18:27;2.45;;;1.48;;
12760;SDS011;6444;49.742;6.114;2022-09-02T16:20:53;1.73;;;1.20;;